Aviation Digital Data Service (ADDS)

Output produced by TAFs form (0121 UTC 27 April 2017)
found at http://www.aviationweather.gov/adds/tafs/
 
METAR text: RJOR 270100Z 32005KT 9999 FEW030 BKN/// 14/06 Q1009
Conditions at: RJOR (TOTTORI AIRPORT , JP) observed 0100 UTC 27 April 2017
Temperature: 14.0°C (57°F)
Dewpoint: 6.0°C (43°F) [RH = 58%]
Pressure (altimeter): 29.79 inches Hg (1009.0 mb)
Winds: from the NW (320 degrees) at 6 MPH (5 knots; 2.6 m/s)
Visibility: 6 or more miles (10+ km)
Ceiling: at least 12,000 feet AGL
Clouds: few clouds at 3000 feet AGL
Weather: no significant weather observed at this time